createdAt,value
2019-02-08T00:00:00.724Z,2.70
2019-02-08T00:02:33.345Z,2.37
2019-02-08T00:05:06.068Z,2.43
2019-02-08T00:07:38.730Z,3.00
2019-02-08T00:10:11.944Z,2.30
2019-02-08T00:12:44.610Z,2.77
2019-02-08T00:15:17.800Z,2.27
2019-02-08T00:17:50.429Z,2.70
2019-02-08T00:20:23.159Z,2.40
2019-02-08T00:22:55.861Z,2.60
2019-02-08T00:25:28.478Z,2.50
2019-02-08T00:28:01.605Z,2.60
2019-02-08T00:30:34.312Z,2.70
2019-02-08T00:33:06.933Z,2.87
2019-02-08T00:35:39.567Z,2.57
2019-02-08T00:38:12.201Z,3.23
2019-02-08T00:40:45.362Z,2.67
2019-02-08T00:43:17.982Z,2.90
2019-02-08T00:45:50.609Z,3.10
2019-02-08T00:48:23.277Z,2.67
2019-02-08T00:50:55.924Z,2.90
2019-02-08T00:53:33.353Z,2.80
2019-02-08T00:56:03.197Z,3.10
2019-02-08T00:58:35.819Z,2.60
2019-02-08T01:01:08.471Z,2.40
2019-02-08T01:03:41.090Z,2.67
2019-02-08T01:06:13.720Z,2.77
2019-02-08T01:08:46.343Z,2.73
2019-02-08T01:11:18.971Z,2.77
2019-02-08T01:13:51.603Z,2.63
2019-02-08T01:16:24.235Z,2.17
2019-02-08T01:18:56.851Z,2.60
2019-02-08T01:21:29.527Z,2.50
2019-02-08T01:24:02.187Z,2.57
2019-02-08T01:26:34.815Z,2.43
2019-02-08T01:29:07.592Z,2.77
2019-02-08T01:31:40.247Z,2.17
2019-02-08T01:34:12.863Z,2.23
2019-02-08T01:36:45.526Z,2.67
2019-02-08T01:39:18.142Z,2.50
2019-02-08T01:41:50.802Z,2.40
2019-02-08T01:44:23.431Z,2.70
2019-02-08T01:46:56.070Z,2.40
2019-02-08T01:49:28.704Z,2.47
2019-02-08T01:52:01.360Z,2.43
2019-02-08T01:54:33.999Z,2.50
2019-02-08T01:57:06.626Z,2.47
2019-02-08T01:59:39.242Z,2.60
2019-02-08T02:02:11.883Z,2.57
2019-02-08T02:04:44.533Z,2.40
2019-02-08T02:07:17.194Z,2.70
2019-02-08T02:09:49.820Z,2.67
2019-02-08T02:12:22.632Z,2.50
2019-02-08T02:14:55.264Z,2.37
2019-02-08T02:17:27.907Z,2.00
2019-02-08T02:20:00.536Z,2.40
2019-02-08T02:22:33.195Z,2.30
2019-02-08T02:25:06.637Z,2.70
2019-02-08T02:27:39.278Z,2.40
2019-02-08T02:30:14.988Z,2.20
2019-02-08T02:32:47.631Z,2.30
2019-02-08T02:35:20.366Z,2.57
2019-02-08T02:37:53.058Z,2.33
2019-02-08T02:40:25.688Z,2.47
2019-02-08T02:42:58.327Z,3.00
2019-02-08T02:46:07.655Z,2.50
2019-02-08T02:48:40.296Z,2.77
2019-02-08T02:51:12.942Z,2.60
2019-02-08T02:53:45.639Z,3.03
2019-02-08T02:56:18.358Z,3.17
2019-02-08T02:58:51.006Z,3.13
2019-02-08T03:01:23.633Z,3.27
2019-02-08T03:03:56.283Z,3.33
2019-02-08T03:06:28.920Z,3.30
2019-02-08T03:09:01.558Z,3.30
2019-02-08T03:11:34.186Z,3.20
2019-02-08T03:14:06.836Z,2.80
2019-02-08T03:16:39.467Z,3.30
2019-02-08T03:19:12.105Z,3.13
2019-02-08T03:21:44.739Z,2.47
2019-02-08T03:24:17.433Z,3.17
2019-02-08T03:26:50.046Z,2.30
2019-02-08T03:29:22.699Z,2.30
2019-02-08T03:31:55.369Z,3.00
2019-02-08T03:34:28.057Z,2.50
2019-02-08T03:37:00.689Z,2.80
2019-02-08T03:39:33.407Z,2.40
2019-02-08T03:42:06.049Z,2.77
2019-02-08T03:44:38.747Z,2.40
2019-02-08T03:50:38.603Z,3.17
2019-02-08T03:53:11.520Z,3.27
2019-02-08T03:55:44.218Z,2.60
2019-02-08T03:58:16.945Z,2.90
2019-02-08T04:00:49.571Z,3.00
2019-02-08T04:03:22.220Z,3.13
2019-02-08T04:05:54.863Z,2.60
2019-02-08T04:08:27.510Z,3.00
2019-02-08T04:11:00.134Z,3.17
2019-02-08T04:13:32.802Z,3.07
2019-02-08T04:16:05.450Z,3.00
2019-02-08T04:18:38.095Z,3.27
2019-02-08T04:21:10.770Z,3.10
2019-02-08T04:23:43.451Z,3.43
2019-02-08T04:26:16.075Z,3.00
2019-02-08T04:28:48.748Z,3.03
2019-02-08T04:31:21.436Z,3.63
2019-02-08T04:33:54.182Z,3.60
2019-02-08T04:36:26.819Z,3.47
2019-02-08T04:38:59.472Z,3.50
2019-02-08T04:41:32.138Z,3.30
2019-02-08T04:44:04.830Z,3.23
2019-02-08T04:46:37.494Z,3.00
2019-02-08T04:49:10.186Z,3.33
2019-02-08T04:51:42.858Z,3.40
2019-02-08T04:54:15.506Z,2.80
2019-02-08T04:56:48.222Z,3.20
2019-02-08T04:59:20.886Z,3.07
2019-02-08T05:01:53.518Z,3.17
2019-02-08T05:04:26.168Z,3.03
2019-02-08T05:06:58.855Z,2.73
2019-02-08T05:09:31.634Z,3.30
2019-02-08T05:12:04.299Z,3.50
2019-02-08T05:14:36.960Z,2.73
2019-02-08T05:17:09.626Z,3.40
2019-02-08T05:19:42.291Z,3.27
2019-02-08T05:22:14.927Z,3.10
2019-02-08T05:24:47.596Z,3.00
2019-02-08T05:27:20.238Z,3.30
2019-02-08T05:29:52.890Z,2.87
2019-02-08T05:32:25.531Z,3.20
2019-02-08T05:34:58.166Z,2.93
2019-02-08T05:37:32.162Z,3.57
2019-02-08T05:40:06.301Z,3.10
2019-02-08T05:42:38.943Z,3.10
2019-02-08T05:45:12.603Z,3.27
2019-02-08T05:47:45.254Z,4.23
2019-02-08T05:50:19.691Z,3.30
2019-02-08T05:52:52.332Z,2.70
2019-02-08T05:55:26.350Z,3.77
2019-02-08T05:57:59.054Z,2.90
2019-02-08T06:00:33.957Z,3.13
2019-02-08T06:03:06.923Z,3.10
2019-02-08T06:05:39.627Z,3.00
2019-02-08T06:08:12.286Z,2.77
2019-02-08T06:10:44.974Z,3.20
2019-02-08T06:13:17.603Z,2.60
2019-02-08T06:15:50.291Z,2.93
2019-02-08T06:18:22.943Z,3.50
2019-02-08T06:20:55.615Z,3.20
2019-02-08T06:23:28.247Z,2.87
2019-02-08T06:26:00.935Z,3.00
2019-02-08T06:28:33.638Z,3.20
2019-02-08T06:31:06.346Z,3.10
2019-02-08T06:33:38.991Z,3.20
2019-02-08T06:36:11.633Z,2.90
2019-02-08T06:38:44.329Z,3.57
2019-02-08T06:41:16.985Z,3.23
2019-02-08T06:43:49.643Z,3.07
2019-02-08T06:46:22.299Z,2.73
2019-02-08T06:48:55.008Z,3.20
2019-02-08T06:51:27.666Z,3.33
2019-02-08T06:54:00.298Z,3.23
2019-02-08T06:56:32.974Z,3.40
2019-02-08T06:59:05.606Z,3.20
2019-02-08T07:01:38.279Z,3.30
2019-02-08T07:04:10.948Z,3.63
2019-02-08T07:06:43.606Z,3.03
2019-02-08T07:09:16.275Z,3.43
2019-02-08T07:11:48.948Z,3.47
2019-02-08T07:14:21.581Z,2.80
2019-02-08T07:16:54.262Z,3.10
2019-02-08T07:19:26.926Z,3.30
2019-02-08T07:21:59.594Z,2.90
2019-02-08T07:24:32.223Z,2.73
2019-02-08T07:27:04.869Z,2.70
2019-02-08T07:29:37.494Z,2.83
2019-02-08T07:32:10.191Z,2.70
2019-02-08T07:34:42.818Z,3.17
2019-02-08T07:37:15.554Z,2.97
2019-02-08T07:39:50.466Z,2.90
2019-02-08T07:42:23.130Z,2.97
2019-02-08T07:44:55.774Z,2.50
2019-02-08T07:47:28.430Z,2.67
2019-02-08T07:50:01.094Z,2.70
2019-02-08T07:52:33.809Z,2.33
2019-02-08T07:55:08.691Z,2.47
2019-02-08T07:57:41.346Z,2.27
2019-02-08T08:00:15.482Z,2.10
2019-02-08T08:02:48.130Z,2.60
2019-02-08T08:05:20.852Z,2.00
2019-02-08T08:07:53.625Z,2.10
2019-02-08T08:10:26.334Z,2.20
2019-02-08T08:12:58.983Z,2.40
2019-02-08T08:15:31.678Z,2.53
2019-02-08T08:18:04.519Z,2.50
2019-02-08T08:20:37.145Z,2.27
2019-02-08T08:23:10.016Z,2.33
2019-02-08T08:25:43.519Z,2.10
2019-02-08T08:28:16.204Z,2.33
2019-02-08T08:30:48.871Z,2.37
2019-02-08T08:33:53.894Z,2.20
2019-02-08T08:37:12.435Z,2.40
2019-02-08T08:40:29.753Z,2.03
2019-02-08T08:43:38.507Z,3.00
2019-02-08T08:46:58.790Z,2.17
2019-02-08T08:50:16.122Z,1.93
2019-02-08T08:53:25.890Z,2.00
2019-02-08T08:56:07.976Z,2.03
2019-02-08T08:59:22.773Z,2.00
2019-02-08T09:02:26.125Z,2.30
2019-02-08T09:05:43.643Z,2.13
2019-02-08T09:08:44.209Z,2.00
2019-02-08T09:11:48.547Z,1.93
2019-02-08T09:14:49.069Z,1.93
2019-02-08T09:17:58.223Z,2.10
2019-02-08T09:20:59.399Z,2.07
2019-02-08T09:24:38.128Z,2.30
2019-02-08T09:27:36.855Z,1.90
2019-02-08T09:30:26.039Z,1.60
2019-02-08T09:33:45.074Z,1.70
2019-02-08T09:36:47.493Z,1.97
2019-02-08T09:39:56.106Z,2.00
2019-02-08T09:43:11.826Z,2.10
2019-02-08T09:46:16.007Z,2.03
2019-02-08T09:49:38.558Z,3.03
2019-02-08T09:52:56.993Z,2.20
2019-02-08T09:56:22.489Z,1.97
2019-02-08T09:59:38.750Z,2.13
2019-02-08T10:02:42.166Z,2.13
2019-02-08T10:05:52.370Z,2.03
2019-02-08T10:09:02.062Z,1.97
2019-02-08T10:12:17.030Z,1.97
2019-02-08T10:15:15.474Z,2.13
2019-02-08T10:18:21.522Z,1.83
2019-02-08T10:21:35.094Z,1.87
2019-02-08T10:24:30.368Z,1.80
2019-02-08T10:27:44.418Z,2.00
2019-02-08T10:31:04.854Z,1.80
2019-02-08T10:34:20.942Z,1.80
2019-02-08T10:37:31.288Z,1.50
2019-02-08T10:41:03.648Z,1.67
2019-02-08T10:44:06.315Z,1.60
2019-02-08T10:47:34.446Z,1.80
2019-02-08T10:50:36.462Z,1.70
2019-02-08T10:53:53.517Z,1.50
2019-02-08T10:57:00.371Z,1.40
2019-02-08T11:00:26.649Z,1.60
2019-02-08T11:03:32.120Z,1.50
2019-02-08T11:06:28.303Z,1.40
2019-02-08T11:09:34.146Z,1.20
2019-02-08T11:13:06.640Z,1.50
2019-02-08T11:16:15.961Z,1.30
2019-02-08T11:19:15.271Z,1.60
2019-02-08T11:21:49.272Z,1.73
2019-02-08T11:24:23.439Z,1.33
2019-02-08T11:26:57.497Z,1.10
2019-02-08T11:29:30.176Z,1.30
2019-02-08T11:32:02.834Z,1.23
2019-02-08T11:34:35.473Z,1.20
2019-02-08T11:37:08.284Z,1.20
2019-02-08T11:39:40.976Z,1.30
2019-02-08T11:42:13.674Z,1.10
2019-02-08T11:44:46.310Z,1.37
2019-02-08T11:47:18.970Z,1.30
2019-02-08T11:49:51.607Z,1.40
2019-02-08T11:52:24.386Z,1.47
2019-02-08T11:54:57.027Z,1.40
2019-02-08T11:57:29.755Z,1.40
2019-02-08T12:00:03.356Z,1.23
2019-02-08T12:02:40.397Z,1.33
2019-02-08T12:05:10.390Z,1.33
2019-02-08T12:07:43.054Z,1.43
2019-02-08T12:10:15.691Z,1.50
2019-02-08T12:12:48.343Z,1.53
2019-02-08T12:15:20.984Z,1.33
2019-02-08T12:17:53.646Z,1.63
2019-02-08T12:20:26.278Z,1.63
2019-02-08T12:22:58.944Z,1.60
2019-02-08T12:25:31.585Z,1.37
2019-02-08T12:28:04.243Z,1.70
2019-02-08T12:30:37.647Z,1.30
2019-02-08T12:33:10.306Z,1.73
2019-02-08T12:35:42.959Z,1.80
2019-02-08T12:38:15.641Z,1.70
2019-02-08T12:40:48.275Z,1.80
2019-02-08T12:43:20.940Z,1.70
2019-02-08T12:45:53.571Z,1.77
2019-02-08T12:48:26.214Z,1.80
2019-02-08T12:50:58.850Z,1.63
2019-02-08T12:53:31.503Z,1.97
2019-02-08T12:56:04.151Z,1.60
2019-02-08T12:58:36.806Z,2.00
2019-02-08T13:01:09.535Z,1.90
2019-02-08T13:03:42.183Z,1.83
2019-02-08T13:06:14.814Z,1.73
2019-02-08T13:08:47.543Z,1.60
2019-02-08T13:11:20.209Z,1.83
2019-02-08T13:13:52.894Z,1.80
2019-02-08T13:16:25.553Z,1.90
2019-02-08T13:18:58.179Z,1.70
2019-02-08T13:21:30.822Z,1.77
2019-02-08T13:24:03.478Z,1.70
2019-02-08T13:26:36.132Z,1.70
2019-02-08T13:29:08.777Z,2.10
2019-02-08T13:31:41.423Z,1.80
2019-02-08T13:34:14.071Z,2.00
2019-02-08T13:36:46.746Z,1.93
2019-02-08T13:39:19.427Z,1.83
2019-02-08T13:41:52.053Z,2.07
2019-02-08T13:44:24.757Z,2.20
2019-02-08T13:46:57.395Z,2.00
2019-02-08T13:49:30.870Z,1.80
2019-02-08T13:52:03.512Z,1.90
2019-02-08T13:54:36.155Z,2.10
2019-02-08T13:57:08.801Z,2.00
2019-02-08T13:59:41.437Z,2.03
2019-02-08T14:02:14.161Z,2.07
2019-02-08T14:04:46.818Z,2.07
2019-02-08T14:07:19.506Z,2.47
2019-02-08T14:09:52.150Z,2.37
2019-02-08T14:12:24.823Z,1.80
2019-02-08T14:14:57.472Z,2.17
2019-02-08T14:17:30.111Z,2.50
2019-02-08T14:20:03.608Z,2.33
2019-02-08T14:22:36.244Z,2.57
2019-02-08T14:25:09.611Z,2.30
2019-02-08T14:27:42.242Z,2.37
2019-02-08T14:30:29.305Z,2.20
2019-02-08T14:33:01.991Z,2.40
2019-02-08T14:35:34.725Z,2.37
2019-02-08T14:38:10.788Z,2.50
2019-02-08T14:40:43.439Z,2.23
2019-02-08T14:43:16.078Z,2.60
2019-02-08T14:45:48.723Z,2.50
2019-02-08T14:48:21.359Z,2.60
2019-02-08T14:50:54.000Z,2.30
2019-02-08T14:53:27.753Z,2.10
2019-02-08T14:56:00.571Z,2.30
2019-02-08T14:58:33.247Z,2.23
2019-02-08T15:01:05.885Z,2.23
2019-02-08T15:03:38.528Z,2.47
2019-02-08T15:06:11.178Z,2.70
2019-02-08T15:08:43.840Z,2.33
2019-02-08T15:11:16.478Z,2.17
2019-02-08T15:13:49.116Z,2.00
2019-02-08T15:16:21.767Z,2.40
2019-02-08T15:18:54.410Z,2.60
2019-02-08T15:21:27.126Z,2.60
2019-02-08T15:23:59.770Z,2.40
2019-02-08T15:26:32.432Z,2.60
2019-02-08T15:29:05.068Z,2.10
2019-02-08T15:31:37.738Z,2.40
2019-02-08T15:34:10.385Z,2.50
2019-02-08T15:36:49.237Z,2.70
2019-02-08T15:39:17.462Z,2.07
2019-02-08T15:41:50.102Z,2.57
2019-02-08T15:44:22.747Z,2.70
2019-02-08T15:46:55.382Z,2.30
2019-02-08T15:49:28.143Z,2.70
2019-02-08T15:52:00.826Z,2.20
2019-02-08T15:54:33.506Z,2.40
2019-02-08T15:57:06.150Z,2.87
2019-02-08T15:59:38.803Z,2.13
2019-02-08T16:02:11.449Z,2.53
2019-02-08T16:04:44.108Z,2.67
2019-02-08T16:07:16.797Z,2.10
2019-02-08T16:09:49.445Z,2.40
2019-02-08T16:12:22.098Z,2.50
2019-02-08T16:14:54.742Z,2.50
2019-02-08T16:17:27.423Z,2.20
2019-02-08T16:20:00.193Z,2.43
2019-02-08T16:22:32.883Z,2.63
2019-02-08T16:25:06.086Z,2.30
2019-02-08T16:27:39.859Z,2.97
2019-02-08T16:30:18.205Z,2.60
2019-02-08T16:32:50.888Z,2.40
2019-02-08T16:35:23.614Z,2.40
2019-02-08T16:37:56.266Z,2.33
2019-02-08T16:40:28.906Z,2.37
2019-02-08T16:43:01.567Z,2.67
2019-02-08T16:45:34.494Z,2.80
2019-02-08T16:48:07.709Z,3.03
2019-02-08T16:50:40.348Z,3.63
2019-02-08T16:53:13.022Z,3.13
2019-02-08T16:55:45.684Z,2.70
2019-02-08T16:58:18.352Z,2.83
2019-02-08T17:00:51.011Z,2.60
2019-02-08T17:03:23.670Z,3.00
2019-02-08T17:05:56.320Z,2.87
2019-02-08T17:08:28.985Z,2.90
2019-02-08T17:11:01.622Z,2.90
2019-02-08T17:13:34.276Z,2.80
2019-02-08T17:16:06.912Z,3.40
2019-02-08T17:18:39.592Z,3.23
2019-02-08T17:21:13.299Z,2.90
2019-02-08T17:23:46.155Z,2.63
2019-02-08T17:26:18.782Z,3.10
2019-02-08T17:28:51.436Z,2.90
2019-02-08T17:31:24.083Z,2.70
2019-02-08T17:33:57.885Z,3.00
2019-02-08T17:36:30.746Z,2.20
2019-02-08T17:39:05.869Z,2.60
2019-02-08T17:41:38.515Z,2.50
2019-02-08T17:44:11.178Z,2.37
2019-02-08T17:46:43.810Z,2.70
2019-02-08T17:49:16.510Z,2.63
2019-02-08T17:51:49.228Z,2.70
2019-02-08T17:54:25.731Z,2.40
2019-02-08T17:56:56.282Z,2.37
2019-02-08T17:59:28.934Z,2.40
2019-02-08T18:02:01.658Z,2.57
2019-02-08T18:04:34.310Z,2.73
2019-02-08T18:07:06.959Z,2.37
2019-02-08T18:09:39.639Z,2.23
2019-02-08T18:12:12.278Z,2.70
2019-02-08T18:14:44.937Z,2.40
2019-02-08T18:17:17.637Z,2.83
2019-02-08T18:19:50.281Z,2.27
2019-02-08T18:22:22.926Z,2.20
2019-02-08T18:24:55.631Z,2.67
2019-02-08T18:27:28.287Z,2.30
2019-02-08T18:30:00.922Z,2.63
2019-02-08T18:32:33.595Z,2.30
2019-02-08T18:35:06.307Z,2.60
2019-02-08T18:37:38.966Z,2.40
2019-02-08T18:40:13.725Z,2.33
2019-02-08T18:42:46.408Z,2.57
2019-02-08T18:45:21.032Z,2.50
2019-02-08T18:47:53.761Z,2.30
2019-02-08T18:50:28.737Z,2.50
2019-02-08T18:53:01.370Z,2.50
2019-02-08T18:55:34.096Z,2.83
2019-02-08T18:58:06.791Z,2.67
2019-02-08T19:00:41.613Z,2.63
2019-02-08T19:03:14.266Z,2.50
2019-02-08T19:05:46.923Z,2.70
2019-02-08T19:08:19.655Z,2.57
2019-02-08T19:10:52.375Z,2.67
2019-02-08T19:13:25.050Z,2.30
2019-02-08T19:15:57.706Z,2.63
2019-02-08T19:18:30.375Z,2.27
2019-02-08T19:21:03.019Z,2.27
2019-02-08T19:23:35.664Z,2.80
2019-02-08T19:26:08.299Z,2.60
2019-02-08T19:28:40.929Z,2.50
2019-02-08T19:31:13.574Z,2.50
2019-02-08T19:33:46.242Z,2.67
2019-02-08T19:36:18.911Z,2.90
2019-02-08T19:38:51.646Z,2.83
2019-02-08T19:41:24.350Z,2.40
2019-02-08T19:43:57.018Z,2.53
2019-02-08T19:46:29.670Z,2.63
2019-02-08T19:49:02.358Z,2.87
2019-02-08T19:51:35.033Z,2.20
2019-02-08T19:54:07.659Z,2.27
2019-02-08T19:56:40.302Z,2.50
2019-02-08T19:59:12.942Z,2.57
2019-02-08T20:01:45.591Z,2.57
2019-02-08T20:04:18.234Z,2.57
2019-02-08T20:06:50.906Z,2.90
2019-02-08T20:09:23.547Z,2.73
2019-02-08T20:11:56.223Z,2.47
2019-02-08T20:14:28.866Z,2.50
2019-02-08T20:17:01.542Z,2.77
2019-02-08T20:19:34.190Z,2.40
2019-02-08T20:22:06.834Z,2.87
2019-02-08T20:24:39.474Z,2.53
2019-02-08T20:27:12.140Z,2.90
2019-02-08T20:29:44.781Z,2.50
2019-02-08T20:32:17.438Z,2.90
2019-02-08T20:34:50.075Z,2.37
2019-02-08T20:37:22.722Z,2.90
2019-02-08T20:39:55.356Z,2.33
2019-02-08T20:42:28.071Z,2.63
2019-02-08T20:45:00.728Z,2.83
2019-02-08T20:47:33.445Z,3.07
2019-02-08T20:50:06.171Z,3.20
2019-02-08T20:52:38.818Z,2.40
2019-02-08T20:55:11.558Z,2.37
2019-02-08T20:57:44.213Z,2.33
2019-02-08T21:00:24.795Z,2.30
2019-02-08T21:02:58.178Z,2.10
2019-02-08T21:05:30.845Z,2.30
2019-02-08T21:08:04.463Z,2.93
2019-02-08T21:10:37.167Z,2.27
2019-02-08T21:13:10.423Z,2.77
2019-02-08T21:15:43.149Z,2.30
2019-02-08T21:18:15.796Z,2.73
2019-02-08T21:20:48.495Z,2.30
2019-02-08T21:23:21.137Z,2.10
2019-02-08T21:25:53.841Z,2.30
2019-02-08T21:28:26.506Z,1.90
2019-02-08T21:30:59.134Z,2.27
2019-02-08T21:33:31.805Z,2.50
2019-02-08T21:36:04.549Z,2.63
2019-02-08T21:38:37.167Z,2.60
2019-02-08T21:41:09.802Z,2.50
2019-02-08T21:43:42.448Z,2.37
2019-02-08T21:46:15.107Z,2.53
2019-02-08T21:48:47.762Z,2.43
2019-02-08T21:51:20.393Z,2.53
2019-02-08T21:53:53.040Z,2.30
2019-02-08T21:56:25.687Z,2.20
2019-02-08T21:59:05.713Z,2.33
2019-02-08T22:01:32.691Z,2.43
2019-02-08T22:04:05.354Z,2.20
2019-02-08T22:06:38.010Z,1.93
2019-02-08T22:09:10.666Z,2.20
2019-02-08T22:11:43.344Z,2.37
2019-02-08T22:14:16.043Z,2.50
2019-02-08T22:16:48.751Z,2.60
2019-02-08T22:19:21.417Z,2.93
2019-02-08T22:21:54.058Z,2.27
2019-02-08T22:24:26.722Z,2.40
2019-02-08T22:26:59.354Z,2.50
2019-02-08T22:29:32.007Z,2.50
2019-02-08T22:32:04.654Z,2.60
2019-02-08T22:34:37.318Z,2.10
2019-02-08T22:37:09.953Z,2.20
2019-02-08T22:39:42.608Z,2.23
2019-02-08T22:42:15.257Z,2.30
2019-02-08T22:44:47.890Z,2.53
2019-02-08T22:47:20.527Z,1.90
2019-02-08T22:49:53.175Z,1.87
2019-02-08T22:52:25.806Z,2.03
2019-02-08T22:54:58.454Z,2.30
2019-02-08T22:57:31.083Z,2.40
2019-02-08T23:00:06.410Z,2.20
2019-02-08T23:02:39.067Z,2.40
2019-02-08T23:05:11.730Z,2.27
2019-02-08T23:07:44.366Z,2.10
2019-02-08T23:10:17.014Z,2.23
2019-02-08T23:12:49.659Z,2.60
2019-02-08T23:15:22.312Z,2.27
2019-02-08T23:17:54.958Z,2.10
2019-02-08T23:20:27.650Z,2.30
2019-02-08T23:23:00.287Z,2.50
2019-02-08T23:25:32.932Z,2.33
2019-02-08T23:28:05.652Z,2.27
2019-02-08T23:30:38.383Z,2.40
2019-02-08T23:33:11.035Z,2.10
2019-02-08T23:35:43.679Z,2.10
2019-02-08T23:38:16.334Z,2.30
2019-02-08T23:40:48.967Z,2.67
2019-02-08T23:43:21.660Z,2.33
2019-02-08T23:45:54.327Z,2.50
2019-02-08T23:48:27.030Z,2.47
2019-02-08T23:50:59.690Z,2.10
2019-02-08T23:53:32.334Z,2.10
2019-02-08T23:56:05.011Z,2.37
2019-02-08T23:58:37.642Z,2.40
